createdAt,value
2018-11-13T00:00:02.517Z,-81
2018-11-13T00:01:02.305Z,-81
2018-11-13T00:02:02.379Z,-80
2018-11-13T00:03:03.114Z,-81
2018-11-13T00:04:02.504Z,-80
2018-11-13T00:05:02.224Z,-81
2018-11-13T00:06:02.540Z,-81
2018-11-13T00:07:02.312Z,-81
2018-11-13T00:08:02.246Z,-81
2018-11-13T00:09:02.531Z,-80
2018-11-13T00:10:02.272Z,-80
2018-11-13T00:11:02.381Z,-80
2018-11-13T00:12:02.438Z,-80
2018-11-13T00:13:02.320Z,-80
2018-11-13T00:14:02.214Z,-80
2018-11-13T00:15:02.487Z,-81
2018-11-13T00:16:02.359Z,-80
2018-11-13T00:17:02.402Z,-80
2018-11-13T00:18:02.377Z,-80
2018-11-13T00:19:02.264Z,-80
2018-11-13T00:20:02.509Z,-80
2018-11-13T00:21:02.523Z,-80
2018-11-13T00:22:02.155Z,-79
2018-11-13T00:23:02.295Z,-79
2018-11-13T00:24:02.819Z,-81
2018-11-13T00:25:02.128Z,-79
2018-11-13T00:26:02.357Z,-80
2018-11-13T00:27:02.254Z,-79
2018-11-13T00:28:02.422Z,-80
2018-11-13T00:29:02.397Z,-80
2018-11-13T00:30:02.150Z,-80
2018-11-13T00:31:02.246Z,-79
2018-11-13T00:32:02.285Z,-80
2018-11-13T00:33:02.131Z,-80
2018-11-13T00:34:02.234Z,-80
2018-11-13T00:35:02.185Z,-80
2018-11-13T00:36:02.220Z,-79
2018-11-13T00:37:02.270Z,-79
2018-11-13T00:38:02.223Z,-80
2018-11-13T00:39:02.703Z,-79
2018-11-13T00:40:02.170Z,-79
2018-11-13T00:41:02.105Z,-80
2018-11-13T00:42:02.089Z,-79
2018-11-13T00:43:02.293Z,-80
2018-11-13T00:44:02.129Z,-80
2018-11-13T00:45:02.310Z,-79
2018-11-13T00:46:03.636Z,-80
2018-11-13T00:47:02.093Z,-79
2018-11-13T00:48:02.137Z,-80
2018-11-13T00:49:03.613Z,-80
2018-11-13T00:50:02.395Z,-79
2018-11-13T00:51:02.320Z,-80
2018-11-13T00:52:02.399Z,-80
2018-11-13T00:53:02.638Z,-81
2018-11-13T00:54:02.212Z,-81
2018-11-13T00:55:05.753Z,-80
2018-11-13T00:56:02.270Z,-79
2018-11-13T00:57:02.364Z,-79
2018-11-13T00:58:02.162Z,-81
2018-11-13T00:59:02.186Z,-81
2018-11-13T01:00:02.511Z,-80
2018-11-13T01:01:02.495Z,-80
2018-11-13T01:02:02.984Z,-79
2018-11-13T01:03:02.206Z,-80
2018-11-13T01:04:02.210Z,-80
2018-11-13T01:05:03.557Z,-79
2018-11-13T01:06:02.227Z,-80
2018-11-13T01:07:02.107Z,-80
2018-11-13T01:08:02.337Z,-79
2018-11-13T01:09:02.091Z,-80
2018-11-13T01:10:02.206Z,-80
2018-11-13T01:11:02.085Z,-79
2018-11-13T01:12:02.353Z,-80
2018-11-13T01:13:02.237Z,-79
2018-11-13T01:14:02.129Z,-80
2018-11-13T01:15:02.895Z,-80
2018-11-13T01:16:02.080Z,-79
2018-11-13T01:17:02.399Z,-80
2018-11-13T01:18:02.680Z,-80
2018-11-13T01:19:03.028Z,-79
2018-11-13T01:20:02.248Z,-79
2018-11-13T01:21:02.420Z,-79
2018-11-13T01:22:02.128Z,-79
2018-11-13T01:23:02.331Z,-79
2018-11-13T01:24:04.357Z,-80
2018-11-13T01:25:02.347Z,-81
2018-11-13T01:26:02.563Z,-80
2018-11-13T01:27:02.512Z,-79
2018-11-13T01:28:02.082Z,-80
2018-11-13T01:29:02.276Z,-80
2018-11-13T01:30:02.877Z,-81
2018-11-13T01:31:02.192Z,-79
2018-11-13T01:32:02.129Z,-79
2018-11-13T01:33:02.232Z,-80
2018-11-13T01:34:02.552Z,-80
2018-11-13T01:35:02.850Z,-79
2018-11-13T01:36:02.112Z,-80
2018-11-13T01:37:02.063Z,-81
2018-11-13T01:38:02.439Z,-81
2018-11-13T01:39:02.170Z,-80
2018-11-13T01:40:02.147Z,-81
2018-11-13T01:41:02.389Z,-80
2018-11-13T01:42:02.025Z,-81
2018-11-13T01:43:02.270Z,-79
2018-11-13T01:44:02.279Z,-80
2018-11-13T01:45:02.009Z,-80
2018-11-13T01:46:02.384Z,-78
2018-11-13T01:47:02.239Z,-79
2018-11-13T01:48:03.137Z,-80
2018-11-13T01:49:02.074Z,-81
2018-11-13T01:50:02.030Z,-81
2018-11-13T01:51:02.324Z,-81
2018-11-13T01:52:02.190Z,-79
2018-11-13T01:53:02.242Z,-81
2018-11-13T01:54:02.557Z,-81
2018-11-13T01:55:02.538Z,-81
2018-11-13T01:56:01.997Z,-79
2018-11-13T01:57:02.631Z,-80
2018-11-13T01:58:02.036Z,-79
2018-11-13T01:59:02.014Z,-79
2018-11-13T02:00:01.992Z,-79
2018-11-13T02:01:02.074Z,-81
2018-11-13T02:02:02.078Z,-79
2018-11-13T02:03:02.002Z,-80
2018-11-13T02:04:02.292Z,-79
2018-11-13T02:05:01.946Z,-80
2018-11-13T02:06:02.008Z,-80
2018-11-13T02:07:02.051Z,-80
2018-11-13T02:08:02.025Z,-80
2018-11-13T02:09:01.978Z,-80
2018-11-13T02:10:02.006Z,-80
2018-11-13T02:11:02.032Z,-80
2018-11-13T02:12:01.985Z,-80
2018-11-13T02:13:02.022Z,-80
2018-11-13T02:14:01.978Z,-80
2018-11-13T02:15:01.988Z,-80
2018-11-13T02:16:01.958Z,-80
2018-11-13T02:17:01.972Z,-79
2018-11-13T02:18:02.420Z,-79
2018-11-13T02:19:02.047Z,-80
2018-11-13T02:20:02.326Z,-81
2018-11-13T02:21:02.216Z,-79
2018-11-13T02:22:01.940Z,-79
2018-11-13T02:23:02.247Z,-79
2018-11-13T02:24:02.055Z,-79
2018-11-13T02:25:02.003Z,-80
2018-11-13T02:26:02.191Z,-80
2018-11-13T02:27:02.185Z,-79
2018-11-13T02:28:02.267Z,-79
2018-11-13T02:29:02.463Z,-81
2018-11-13T02:30:02.088Z,-80
2018-11-13T02:31:01.956Z,-81
2018-11-13T02:32:01.989Z,-80
2018-11-13T02:33:02.247Z,-79
2018-11-13T02:34:02.303Z,-80
2018-11-13T02:35:02.366Z,-80
2018-11-13T02:36:02.059Z,-80
2018-11-13T02:37:02.008Z,-80
2018-11-13T02:38:01.989Z,-80
2018-11-13T02:39:01.947Z,-80
2018-11-13T02:40:02.502Z,-80
2018-11-13T02:41:02.142Z,-80
2018-11-13T02:42:02.081Z,-80
2018-11-13T02:43:02.436Z,-80
2018-11-13T02:44:02.028Z,-80
2018-11-13T02:45:02.268Z,-80
2018-11-13T02:46:02.016Z,-80
2018-11-13T02:47:02.052Z,-79
2018-11-13T02:48:02.151Z,-79
2018-11-13T02:49:02.080Z,-79
2018-11-13T02:50:02.050Z,-80
2018-11-13T02:51:01.942Z,-79
2018-11-13T02:52:02.356Z,-79
2018-11-13T02:53:01.956Z,-80
2018-11-13T02:54:01.945Z,-79
2018-11-13T02:55:02.271Z,-75
2018-11-13T02:56:01.929Z,-79
2018-11-13T02:57:01.937Z,-79
2018-11-13T02:58:02.297Z,-79
2018-11-13T02:59:02.039Z,-79
2018-11-13T03:00:02.042Z,-79
2018-11-13T03:01:01.939Z,-80
2018-11-13T03:02:02.007Z,-79
2018-11-13T03:03:01.926Z,-78
2018-11-13T03:04:01.994Z,-78
2018-11-13T03:05:02.249Z,-78
2018-11-13T03:06:02.450Z,-76
2018-11-13T03:07:01.950Z,-78
2018-11-13T03:08:02.149Z,-79
2018-11-13T03:09:02.172Z,-79
2018-11-13T03:10:02.060Z,-79
2018-11-13T03:11:02.033Z,-79
2018-11-13T03:12:02.277Z,-79
2018-11-13T03:13:01.975Z,-77
2018-11-13T03:14:01.928Z,-78
2018-11-13T03:15:02.027Z,-76
2018-11-13T03:16:01.956Z,-78
2018-11-13T03:17:02.076Z,-78
2018-11-13T03:18:02.114Z,-78
2018-11-13T03:19:01.987Z,-77
2018-11-13T03:20:01.942Z,-77
2018-11-13T03:21:02.175Z,-77
2018-11-13T03:22:02.408Z,-76
2018-11-13T03:23:01.937Z,-77
2018-11-13T03:24:01.889Z,-78
2018-11-13T03:25:02.043Z,-76
2018-11-13T03:26:01.932Z,-78
2018-11-13T03:27:02.103Z,-77
2018-11-13T03:28:02.028Z,-78
2018-11-13T03:29:01.917Z,-77
2018-11-13T03:30:01.974Z,-78
2018-11-13T03:31:02.602Z,-78
2018-11-13T03:32:01.914Z,-79
2018-11-13T03:33:02.113Z,-78
2018-11-13T03:34:01.939Z,-78
2018-11-13T03:35:01.882Z,-79
2018-11-13T03:36:01.933Z,-79
2018-11-13T03:37:01.848Z,-80
2018-11-13T03:38:01.947Z,-80
2018-11-13T03:39:01.861Z,-80
2018-11-13T03:40:01.844Z,-80
2018-11-13T03:41:01.857Z,-78
2018-11-13T03:42:01.891Z,-80
2018-11-13T03:43:01.871Z,-80
2018-11-13T03:44:01.863Z,-78
2018-11-13T03:45:01.985Z,-77
2018-11-13T03:46:01.898Z,-78
2018-11-13T03:47:01.921Z,-77
2018-11-13T03:48:01.857Z,-79
2018-11-13T03:49:02.252Z,-77
2018-11-13T03:50:02.020Z,-78
2018-11-13T03:51:02.184Z,-76
2018-11-13T03:52:02.544Z,-76
2018-11-13T03:53:02.675Z,-76
2018-11-13T03:54:01.967Z,-78
2018-11-13T03:55:01.988Z,-79
2018-11-13T03:56:01.989Z,-79
2018-11-13T03:57:01.850Z,-78
2018-11-13T03:58:01.870Z,-79
2018-11-13T03:59:01.945Z,-79
2018-11-13T04:00:02.252Z,-80
2018-11-13T04:01:02.024Z,-79
2018-11-13T04:02:01.862Z,-79
2018-11-13T04:03:01.918Z,-79
2018-11-13T04:04:01.925Z,-79
2018-11-13T04:05:02.014Z,-79
2018-11-13T04:06:01.916Z,-79
2018-11-13T04:07:01.952Z,-77
2018-11-13T04:08:02.691Z,-75
2018-11-13T04:09:01.994Z,-77
2018-11-13T04:10:01.905Z,-78
2018-11-13T04:11:02.033Z,-78
2018-11-13T04:12:01.823Z,-78
2018-11-13T04:13:01.904Z,-78
2018-11-13T04:14:01.868Z,-78
2018-11-13T04:15:01.833Z,-77
2018-11-13T04:16:01.832Z,-78
2018-11-13T04:17:01.877Z,-78
2018-11-13T04:18:01.951Z,-77
2018-11-13T04:19:01.989Z,-77
2018-11-13T04:20:01.839Z,-78
2018-11-13T04:21:01.866Z,-77
2018-11-13T04:22:02.099Z,-76
2018-11-13T04:23:01.924Z,-78
2018-11-13T04:24:01.857Z,-80
2018-11-13T04:25:02.686Z,-75
2018-11-13T04:26:02.113Z,-76
2018-11-13T04:27:02.031Z,-77
2018-11-13T04:28:01.935Z,-78
2018-11-13T04:29:01.841Z,-78
2018-11-13T04:30:01.910Z,-77
2018-11-13T04:31:01.877Z,-79
2018-11-13T04:32:01.865Z,-78
2018-11-13T04:33:01.902Z,-78
2018-11-13T04:34:02.298Z,-76
2018-11-13T04:35:02.010Z,-78
2018-11-13T04:36:01.931Z,-78
2018-11-13T04:37:01.879Z,-80
2018-11-13T04:38:01.888Z,-80
2018-11-13T04:39:01.888Z,-79
2018-11-13T04:40:02.239Z,-80
2018-11-13T04:41:01.943Z,-80
2018-11-13T04:42:02.055Z,-78
2018-11-13T04:43:01.874Z,-78
2018-11-13T04:44:01.891Z,-80
2018-11-13T04:45:01.947Z,-80
2018-11-13T04:46:01.876Z,-80
2018-11-13T04:47:02.069Z,-80
2018-11-13T04:48:01.911Z,-80
2018-11-13T04:49:01.893Z,-78
2018-11-13T04:50:02.053Z,-79
2018-11-13T04:51:01.850Z,-78
2018-11-13T04:52:01.942Z,-79
2018-11-13T04:53:02.023Z,-78
2018-11-13T04:54:02.084Z,-79
2018-11-13T04:55:02.125Z,-80
2018-11-13T04:56:01.949Z,-80
2018-11-13T04:57:01.945Z,-80
2018-11-13T04:58:01.922Z,-80
2018-11-13T04:59:01.961Z,-78
2018-11-13T05:00:02.161Z,-78
2018-11-13T05:01:01.799Z,-78
2018-11-13T05:02:01.832Z,-78
2018-11-13T05:03:02.823Z,-78
2018-11-13T05:04:01.762Z,-79
2018-11-13T05:05:02.193Z,-79
2018-11-13T05:06:01.797Z,-80
2018-11-13T05:07:01.778Z,-80
2018-11-13T05:08:01.810Z,-80
2018-11-13T05:09:01.724Z,-78
2018-11-13T05:10:03.094Z,-80
2018-11-13T05:11:01.756Z,-79
2018-11-13T05:12:01.730Z,-79
2018-11-13T05:13:01.800Z,-79
2018-11-13T05:14:01.806Z,-79
2018-11-13T05:15:01.822Z,-79
2018-11-13T05:16:01.775Z,-80
2018-11-13T05:17:01.786Z,-80
2018-11-13T05:18:01.733Z,-80
2018-11-13T05:19:01.760Z,-79
2018-11-13T05:20:01.853Z,-79
2018-11-13T05:21:01.759Z,-77
2018-11-13T05:22:01.813Z,-79
2018-11-13T05:23:02.469Z,-79
2018-11-13T05:24:01.706Z,-79
2018-11-13T05:25:01.847Z,-79
2018-11-13T05:26:02.557Z,-79
2018-11-13T05:27:01.746Z,-79
2018-11-13T05:28:01.818Z,-79
2018-11-13T05:29:02.038Z,-79
2018-11-13T05:30:01.950Z,-80
2018-11-13T05:31:01.794Z,-77
2018-11-13T05:32:01.814Z,-77
2018-11-13T05:33:01.974Z,-78
2018-11-13T05:34:01.774Z,-77
2018-11-13T05:35:01.921Z,-77
2018-11-13T05:36:01.827Z,-78
2018-11-13T05:37:01.745Z,-79
2018-11-13T05:38:01.908Z,-77
2018-11-13T05:39:01.782Z,-77
2018-11-13T05:40:02.022Z,-77
2018-11-13T05:41:01.878Z,-77
2018-11-13T05:42:01.752Z,-77
2018-11-13T05:43:01.710Z,-79
2018-11-13T05:44:01.862Z,-78
2018-11-13T05:45:01.962Z,-79
2018-11-13T05:46:01.687Z,-79
2018-11-13T05:47:02.349Z,-80
2018-11-13T05:48:01.788Z,-79
2018-11-13T05:49:01.955Z,-78
2018-11-13T05:50:01.862Z,-79
2018-11-13T05:51:01.779Z,-78
2018-11-13T05:52:01.722Z,-78
2018-11-13T05:53:01.762Z,-79
2018-11-13T05:54:01.655Z,-79
2018-11-13T05:55:01.723Z,-79
2018-11-13T05:56:01.740Z,-79
2018-11-13T05:57:01.927Z,-76
2018-11-13T05:58:01.810Z,-79
2018-11-13T05:59:01.930Z,-79
2018-11-13T06:00:02.168Z,-76
2018-11-13T06:01:01.753Z,-77
2018-11-13T06:02:02.050Z,-76
2018-11-13T06:03:01.701Z,-77
2018-11-13T06:04:01.660Z,-77
2018-11-13T06:05:01.908Z,-75
2018-11-13T06:06:01.710Z,-81
2018-11-13T06:07:01.724Z,-79
2018-11-13T06:08:02.011Z,-79
2018-11-13T06:09:01.800Z,-79
2018-11-13T06:10:01.677Z,-79
2018-11-13T06:11:02.216Z,-77
2018-11-13T06:12:01.729Z,-80
2018-11-13T06:13:01.703Z,-80
2018-11-13T06:14:02.801Z,-80
2018-11-13T06:15:01.728Z,-80
2018-11-13T06:16:01.701Z,-80
2018-11-13T06:17:01.969Z,-79
2018-11-13T06:18:02.387Z,-81
2018-11-13T06:19:01.702Z,-79
2018-11-13T06:20:01.891Z,-77
2018-11-13T06:21:01.700Z,-79
2018-11-13T06:22:01.920Z,-78
2018-11-13T06:23:03.444Z,-79
2018-11-13T06:24:01.777Z,-81
2018-11-13T06:25:01.852Z,-81
2018-11-13T06:26:01.941Z,-77
2018-11-13T06:27:01.638Z,-80
2018-11-13T06:28:01.994Z,-78
2018-11-13T06:29:01.710Z,-79
2018-11-13T06:30:01.721Z,-79
2018-11-13T06:31:01.860Z,-79
2018-11-13T06:32:01.734Z,-79
2018-11-13T06:33:01.756Z,-80
2018-11-13T06:34:01.643Z,-79
2018-11-13T06:35:01.652Z,-80
2018-11-13T06:36:02.289Z,-80
2018-11-13T06:37:01.652Z,-80
2018-11-13T06:38:01.882Z,-80
2018-11-13T06:39:01.927Z,-81
2018-11-13T06:40:01.636Z,-80
2018-11-13T06:41:01.627Z,-81
2018-11-13T06:42:01.637Z,-80
2018-11-13T06:43:02.099Z,-78
2018-11-13T06:44:01.646Z,-81
2018-11-13T06:45:01.723Z,-80
2018-11-13T06:46:01.818Z,-80
2018-11-13T06:47:01.615Z,-80
2018-11-13T06:48:01.654Z,-80
2018-11-13T06:49:02.465Z,-79
2018-11-13T06:50:01.617Z,-80
2018-11-13T06:51:01.624Z,-81
2018-11-13T06:52:01.915Z,-78
2018-11-13T06:53:01.591Z,-79
2018-11-13T06:54:01.604Z,-80
2018-11-13T06:55:01.622Z,-80
2018-11-13T06:56:01.594Z,-79
2018-11-13T06:57:01.833Z,-79
2018-11-13T06:58:01.590Z,-79
2018-11-13T06:59:01.571Z,-79
2018-11-13T07:00:01.805Z,-79
2018-11-13T07:01:01.880Z,-78
2018-11-13T07:02:01.631Z,-80
2018-11-13T07:03:01.673Z,-80
2018-11-13T07:04:01.604Z,-80
2018-11-13T07:05:03.063Z,-80
2018-11-13T07:06:01.615Z,-80
2018-11-13T07:07:02.223Z,-78
2018-11-13T07:08:01.706Z,-80
2018-11-13T07:09:01.612Z,-80
2018-11-13T07:10:01.650Z,-80
2018-11-13T07:11:02.140Z,-80
2018-11-13T07:12:01.791Z,-80
2018-11-13T07:13:01.736Z,-80
2018-11-13T07:14:01.744Z,-79
2018-11-13T07:15:01.757Z,-80
2018-11-13T07:16:01.805Z,-80
2018-11-13T07:17:01.600Z,-80
2018-11-13T07:18:02.035Z,-78
2018-11-13T07:19:01.575Z,-79
2018-11-13T07:20:01.618Z,-79
2018-11-13T07:21:02.912Z,-79
2018-11-13T07:22:01.619Z,-79
2018-11-13T07:23:01.646Z,-80
2018-11-13T07:24:01.749Z,-79
2018-11-13T07:25:01.933Z,-79
2018-11-13T07:26:01.591Z,-79
2018-11-13T07:27:02.608Z,-80
2018-11-13T07:28:03.260Z,-76
2018-11-13T07:29:01.635Z,-79
2018-11-13T07:30:01.778Z,-77
2018-11-13T07:31:01.802Z,-79
2018-11-13T07:32:01.842Z,-76
2018-11-13T07:33:01.792Z,-79
2018-11-13T07:34:01.727Z,-78
2018-11-13T07:35:01.938Z,-77
2018-11-13T07:36:01.804Z,-77
2018-11-13T07:37:01.587Z,-79
2018-11-13T07:38:01.745Z,-79
2018-11-13T07:39:01.617Z,-79
2018-11-13T07:40:01.589Z,-79
2018-11-13T07:41:02.655Z,-77
2018-11-13T07:42:01.694Z,-79
2018-11-13T07:43:01.578Z,-79
2018-11-13T07:44:01.995Z,-77
2018-11-13T07:45:01.894Z,-78
2018-11-13T07:46:01.578Z,-79
2018-11-13T07:47:02.847Z,-79
2018-11-13T07:48:02.919Z,-79
2018-11-13T07:49:01.593Z,-79
2018-11-13T07:50:01.708Z,-79
2018-11-13T07:51:02.036Z,-79
2018-11-13T07:52:01.644Z,-79
2018-11-13T07:53:01.753Z,-79
2018-11-13T07:54:02.802Z,-79
2018-11-13T07:55:01.763Z,-78
2018-11-13T07:56:01.623Z,-80
2018-11-13T07:57:01.694Z,-79
2018-11-13T07:58:01.592Z,-80
2018-11-13T07:59:01.560Z,-79
2018-11-13T08:00:02.000Z,-77
2018-11-13T08:01:01.798Z,-80
2018-11-13T08:02:01.541Z,-79
2018-11-13T08:03:01.511Z,-80
2018-11-13T08:04:01.559Z,-80
2018-11-13T08:05:01.845Z,-79
2018-11-13T08:06:02.223Z,-79
2018-11-13T08:07:01.623Z,-80
2018-11-13T08:08:01.588Z,-80
2018-11-13T08:09:01.628Z,-80
2018-11-13T08:10:01.446Z,-79
2018-11-13T08:11:01.574Z,-79
2018-11-13T08:12:02.988Z,-78
2018-11-13T08:13:03.385Z,-78
2018-11-13T08:14:01.625Z,-78
2018-11-13T08:15:01.574Z,-79
2018-11-13T08:16:01.724Z,-79
2018-11-13T08:17:01.534Z,-79
2018-11-13T08:18:01.508Z,-79
2018-11-13T08:19:01.595Z,-80
2018-11-13T08:20:01.501Z,-79
2018-11-13T08:21:01.950Z,-80
2018-11-13T08:22:02.582Z,-79
2018-11-13T08:23:01.552Z,-80
2018-11-13T08:24:01.442Z,-79
2018-11-13T08:25:01.637Z,-79
2018-11-13T08:26:01.442Z,-79
2018-11-13T08:27:02.565Z,-79
2018-11-13T08:28:02.122Z,-79
2018-11-13T08:29:04.206Z,-79
2018-11-13T08:30:01.457Z,-79
2018-11-13T08:31:01.476Z,-80
2018-11-13T08:32:01.566Z,-80
2018-11-13T08:33:01.640Z,-78
2018-11-13T08:34:01.886Z,-79
2018-11-13T08:35:03.326Z,-80
2018-11-13T08:36:01.442Z,-79
2018-11-13T08:37:01.498Z,-79
2018-11-13T08:38:01.623Z,-79
2018-11-13T08:39:01.519Z,-79
2018-11-13T08:40:01.441Z,-80
2018-11-13T08:41:01.462Z,-79
2018-11-13T08:42:01.541Z,-78
2018-11-13T08:43:01.600Z,-79
2018-11-13T08:44:02.781Z,-79
2018-11-13T08:45:01.484Z,-79
2018-11-13T08:46:01.447Z,-80
2018-11-13T08:47:01.456Z,-79
2018-11-13T08:48:02.277Z,-77
2018-11-13T08:49:01.584Z,-80
2018-11-13T08:50:01.530Z,-80
2018-11-13T08:51:01.545Z,-79
2018-11-13T08:52:01.805Z,-78
2018-11-13T08:53:01.500Z,-79
2018-11-13T08:54:01.443Z,-79
2018-11-13T08:55:01.835Z,-78
2018-11-13T08:56:01.713Z,-80
2018-11-13T08:57:01.408Z,-79
2018-11-13T08:58:01.394Z,-80
2018-11-13T08:59:03.437Z,-79
2018-11-13T09:00:01.466Z,-79
2018-11-13T09:01:01.488Z,-79
2018-11-13T09:02:01.626Z,-79
2018-11-13T09:03:01.588Z,-79
2018-11-13T09:04:01.697Z,-78
2018-11-13T09:05:02.791Z,-79
2018-11-13T09:06:02.040Z,-78
2018-11-13T09:07:01.672Z,-79
2018-11-13T09:08:01.463Z,-80
2018-11-13T09:09:01.557Z,-78
2018-11-13T09:10:01.405Z,-80
2018-11-13T09:11:01.683Z,-79
2018-11-13T09:12:04.241Z,-80
2018-11-13T09:13:01.678Z,-79
2018-11-13T09:14:01.410Z,-80
2018-11-13T09:15:01.403Z,-80
2018-11-13T09:16:01.712Z,-78
2018-11-13T09:17:01.670Z,-78
2018-11-13T09:18:02.488Z,-80
2018-11-13T09:19:02.819Z,-80
2018-11-13T09:20:01.743Z,-78
2018-11-13T09:21:01.748Z,-79
2018-11-13T09:22:01.619Z,-78
2018-11-13T09:23:01.521Z,-80
2018-11-13T09:24:01.469Z,-80
2018-11-13T09:25:01.385Z,-80
2018-11-13T09:26:01.414Z,-80
2018-11-13T09:27:01.394Z,-80
2018-11-13T09:28:01.428Z,-80
2018-11-13T09:29:01.399Z,-79
2018-11-13T09:30:03.546Z,-80
2018-11-13T09:31:04.308Z,-80
2018-11-13T09:32:01.459Z,-80
2018-11-13T09:33:02.294Z,-77
2018-11-13T09:34:01.539Z,-79
2018-11-13T09:35:01.876Z,-79
2018-11-13T09:36:01.498Z,-79
2018-11-13T09:37:01.676Z,-77
2018-11-13T09:38:01.477Z,-80
2018-11-13T09:39:01.395Z,-81
2018-11-13T09:40:01.709Z,-81
2018-11-13T09:41:01.431Z,-80
2018-11-13T09:42:01.621Z,-81
2018-11-13T09:43:01.466Z,-81
2018-11-13T09:44:01.657Z,-80
2018-11-13T09:45:03.016Z,-80
2018-11-13T09:46:02.903Z,-80
2018-11-13T09:47:01.358Z,-78
2018-11-13T09:48:01.426Z,-79
2018-11-13T09:49:01.401Z,-80
2018-11-13T09:50:01.462Z,-81
2018-11-13T09:51:01.436Z,-79
2018-11-13T09:52:01.360Z,-80
2018-11-13T09:53:01.380Z,-80
2018-11-13T09:54:01.374Z,-79
2018-11-13T09:55:01.412Z,-79
2018-11-13T09:56:01.438Z,-79
2018-11-13T09:57:01.526Z,-78
2018-11-13T09:58:01.364Z,-79
2018-11-13T09:59:02.496Z,-78
2018-11-13T10:00:02.821Z,-80
2018-11-13T10:01:05.715Z,-79
2018-11-13T10:02:08.806Z,-79
2018-11-13T10:03:11.771Z,-80
2018-11-13T10:04:10.279Z,-79
2018-11-13T10:05:11.576Z,-79
2018-11-13T10:06:02.713Z,-80
2018-11-13T10:07:01.783Z,-80
2018-11-13T10:08:01.661Z,-77
2018-11-13T10:09:01.386Z,-79
2018-11-13T10:10:01.914Z,-79
2018-11-13T10:11:01.539Z,-78
2018-11-13T10:12:01.422Z,-79
2018-11-13T10:13:01.687Z,-80
2018-11-13T10:14:01.773Z,-77
2018-11-13T10:15:01.554Z,-77
2018-11-13T10:16:01.370Z,-78
2018-11-13T10:17:01.817Z,-80
2018-11-13T10:18:03.979Z,-80
2018-11-13T10:19:01.596Z,-80
2018-11-13T10:20:01.317Z,-80
2018-11-13T10:21:01.360Z,-80
2018-11-13T10:22:01.449Z,-80
2018-11-13T10:23:01.669Z,-77
2018-11-13T10:24:01.429Z,-80
2018-11-13T10:25:01.478Z,-79
2018-11-13T10:26:01.358Z,-81
2018-11-13T10:27:02.258Z,-78
2018-11-13T10:28:01.976Z,-77
2018-11-13T10:29:01.483Z,-79
2018-11-13T10:30:02.593Z,-79
2018-11-13T10:31:01.401Z,-79
2018-11-13T10:32:01.312Z,-80
2018-11-13T10:33:01.613Z,-79
2018-11-13T10:34:01.744Z,-78
2018-11-13T10:35:01.456Z,-79
2018-11-13T10:36:01.393Z,-80
2018-11-13T10:37:02.129Z,-76
2018-11-13T10:38:01.457Z,-79
2018-11-13T10:39:01.643Z,-77
2018-11-13T10:40:02.111Z,-78
2018-11-13T10:41:02.788Z,-80
2018-11-13T10:42:01.395Z,-79
2018-11-13T10:43:01.401Z,-80
2018-11-13T10:44:01.372Z,-80
2018-11-13T10:45:01.309Z,-79
2018-11-13T10:46:01.334Z,-78
2018-11-13T10:47:01.357Z,-78
2018-11-13T10:48:01.422Z,-79
2018-11-13T10:49:02.095Z,-77
2018-11-13T10:50:01.926Z,-78
2018-11-13T10:51:01.427Z,-78
2018-11-13T10:52:01.460Z,-77
2018-11-13T10:53:01.323Z,-78
2018-11-13T10:54:01.305Z,-78
2018-11-13T10:55:01.397Z,-78
2018-11-13T10:56:01.381Z,-79
2018-11-13T10:57:01.858Z,-75
2018-11-13T10:58:01.426Z,-78
2018-11-13T10:59:01.343Z,-78
2018-11-13T11:00:01.425Z,-78
2018-11-13T11:01:01.558Z,-75
2018-11-13T11:02:01.583Z,-76
2018-11-13T11:03:03.426Z,-77
2018-11-13T11:04:01.538Z,-77
2018-11-13T11:05:01.415Z,-77
2018-11-13T11:07:01.632Z,-75
2018-11-13T11:08:01.364Z,-75
2018-11-13T11:09:01.276Z,-78
2018-11-13T11:10:01.787Z,-75
2018-11-13T11:11:01.580Z,-75
2018-11-13T11:12:01.294Z,-78
2018-11-13T11:13:04.202Z,-78
2018-11-13T11:14:04.975Z,-76
2018-11-13T11:15:01.357Z,-78
2018-11-13T11:16:01.583Z,-75
2018-11-13T11:17:01.353Z,-76
2018-11-13T11:18:02.047Z,-78
2018-11-13T11:19:03.201Z,-78
2018-11-13T11:20:01.293Z,-78
2018-11-13T11:21:01.303Z,-78
2018-11-13T11:22:01.260Z,-79
2018-11-13T11:23:02.062Z,-78
2018-11-13T11:24:02.239Z,-78
2018-11-13T11:25:01.776Z,-78
2018-11-13T11:26:01.318Z,-78
2018-11-13T11:27:01.239Z,-78
2018-11-13T11:28:01.747Z,-78
2018-11-13T11:29:01.311Z,-78
2018-11-13T11:30:01.327Z,-78
2018-11-13T11:31:02.336Z,-79
2018-11-13T11:32:01.188Z,-78
2018-11-13T11:33:01.298Z,-79
2018-11-13T11:34:01.327Z,-79
2018-11-13T11:35:01.492Z,-81
2018-11-13T11:36:01.528Z,-81
2018-11-13T11:37:01.275Z,-80
2018-11-13T11:38:01.303Z,-80
2018-11-13T11:39:03.963Z,-80
2018-11-13T11:40:01.250Z,-79
2018-11-13T11:41:01.317Z,-80
2018-11-13T11:42:01.225Z,-80
2018-11-13T11:43:01.329Z,-81
2018-11-13T11:44:01.252Z,-81
2018-11-13T11:45:01.691Z,-81
2018-11-13T11:47:01.820Z,-80
2018-11-13T11:48:01.198Z,-80
2018-11-13T11:49:01.359Z,-81
2018-11-13T11:50:01.367Z,-80
2018-11-13T11:51:01.805Z,-81
2018-11-13T11:52:01.869Z,-80
2018-11-13T11:53:01.221Z,-80
2018-11-13T11:54:03.144Z,-81
2018-11-13T11:55:01.431Z,-81
2018-11-13T11:56:01.999Z,-80
2018-11-13T11:57:01.320Z,-80
2018-11-13T11:58:01.599Z,-81
2018-11-13T11:59:01.426Z,-81
2018-11-13T12:00:01.680Z,-81
2018-11-13T12:01:01.588Z,-80
2018-11-13T12:02:01.674Z,-80
2018-11-13T12:03:01.384Z,-80
2018-11-13T12:04:01.578Z,-80
2018-11-13T12:05:01.290Z,-79
2018-11-13T12:06:01.205Z,-79
2018-11-13T12:07:01.151Z,-80
2018-11-13T12:08:01.260Z,-80
2018-11-13T12:09:01.257Z,-80
2018-11-13T12:10:01.529Z,-81
2018-11-13T12:11:01.203Z,-79
2018-11-13T12:12:01.600Z,-80
2018-11-13T12:13:01.317Z,-79
2018-11-13T12:14:01.545Z,-80
2018-11-13T12:15:01.282Z,-80
2018-11-13T12:16:01.247Z,-77
2018-11-13T12:17:01.446Z,-78
2018-11-13T12:18:01.149Z,-78
2018-11-13T12:19:03.060Z,-79
2018-11-13T12:20:01.305Z,-80
2018-11-13T12:21:01.718Z,-79
2018-11-13T12:22:01.373Z,-77
2018-11-13T12:23:01.163Z,-78
2018-11-13T12:24:01.339Z,-78
2018-11-13T12:25:01.260Z,-80
2018-11-13T12:26:01.452Z,-81
2018-11-13T12:27:01.177Z,-80
2018-11-13T12:28:01.468Z,-80
2018-11-13T12:29:01.263Z,-81
2018-11-13T12:30:01.223Z,-78
2018-11-13T12:31:01.409Z,-76
2018-11-13T12:32:01.518Z,-76
2018-11-13T12:33:01.478Z,-76
2018-11-13T12:34:01.416Z,-77
2018-11-13T12:35:01.273Z,-76
2018-11-13T12:36:01.294Z,-77
2018-11-13T12:37:01.277Z,-77
2018-11-13T12:38:01.412Z,-80
2018-11-13T12:39:01.281Z,-80
2018-11-13T12:40:01.206Z,-81
2018-11-13T12:41:02.933Z,-83
2018-11-13T12:42:01.888Z,-79
2018-11-13T12:43:01.172Z,-79
2018-11-13T12:44:01.248Z,-77
2018-11-13T12:45:01.385Z,-77
2018-11-13T12:46:01.537Z,-75
2018-11-13T12:47:01.270Z,-78
2018-11-13T12:48:01.246Z,-78
2018-11-13T12:49:03.973Z,-76
2018-11-13T12:50:01.657Z,-81
2018-11-13T12:51:01.450Z,-81
2018-11-13T12:52:01.416Z,-81
2018-11-13T12:53:01.114Z,-81
2018-11-13T12:54:01.239Z,-80
2018-11-13T12:55:01.185Z,-81
2018-11-13T12:56:02.366Z,-83
2018-11-13T12:57:01.140Z,-83
2018-11-13T12:58:01.134Z,-80
2018-11-13T12:59:01.125Z,-83
2018-11-13T13:00:01.249Z,-79
2018-11-13T13:01:01.247Z,-82
2018-11-13T13:02:01.786Z,-82
2018-11-13T13:03:01.152Z,-81
2018-11-13T13:04:01.355Z,-82
2018-11-13T13:05:01.115Z,-82
2018-11-13T13:06:01.209Z,-82
2018-11-13T13:07:01.438Z,-82
2018-11-13T13:08:01.449Z,-77
2018-11-13T13:09:01.046Z,-81
2018-11-13T13:10:01.134Z,-81
2018-11-13T13:11:01.506Z,-82
2018-11-13T13:12:01.230Z,-82
2018-11-13T13:13:01.087Z,-82
2018-11-13T13:14:01.077Z,-82
2018-11-13T13:15:03.362Z,-83
2018-11-13T13:16:01.940Z,-83
2018-11-13T13:17:01.408Z,-83
2018-11-13T13:18:01.097Z,-82
2018-11-13T13:19:02.833Z,-82
2018-11-13T13:20:01.200Z,-82
2018-11-13T13:21:01.098Z,-82
2018-11-13T13:22:02.038Z,-81
2018-11-13T13:23:01.260Z,-82
2018-11-13T13:24:01.209Z,-82
2018-11-13T13:25:01.482Z,-81
2018-11-13T13:26:01.912Z,-83
2018-11-13T13:27:01.162Z,-82
2018-11-13T13:28:01.503Z,-82
2018-11-13T13:29:01.087Z,-82
2018-11-13T13:30:01.022Z,-81
2018-11-13T13:31:01.050Z,-81
2018-11-13T13:32:01.392Z,-82
2018-11-13T13:33:01.143Z,-81
2018-11-13T13:34:01.115Z,-82
2018-11-13T13:35:01.081Z,-82
2018-11-13T13:36:01.425Z,-82
2018-11-13T13:37:01.311Z,-82
2018-11-13T13:38:01.345Z,-83
2018-11-13T13:39:01.018Z,-82
2018-11-13T13:40:01.205Z,-81
2018-11-13T13:41:01.379Z,-81
2018-11-13T13:42:01.043Z,-82
2018-11-13T13:43:01.342Z,-82
2018-11-13T13:44:01.315Z,-82
2018-11-13T13:45:01.062Z,-81
2018-11-13T13:46:01.174Z,-82
2018-11-13T13:47:01.255Z,-82
2018-11-13T13:48:01.325Z,-81